<?xml version='1.0' encoding='UTF-8'?><gpx version="1.1" creator="JPX - https://github.com/jenetics/jpx" xmlns="http://www.topografix.com/GPX/1/1"><trk><trkseg><trkpt lat="46.0333565" lon="9.3539219"><ele>692.0</ele><time>2026-04-04T07:35:49.358Z</time></trkpt><trkpt lat="46.0180199" lon="9.3448613"><ele>432.0</ele><time>2026-04-04T07:59:53.848Z</time></trkpt><trkpt lat="46.0231834" lon="9.3584151"><ele>464.0</ele><time>2026-04-04T08:04:05.318Z</time></trkpt><trkpt lat="46.0240859" lon="9.3617112"><ele>464.0</ele><time>2026-04-04T08:05:23.824Z</time></trkpt><trkpt lat="46.0236967" lon="9.3617275"><ele>464.0</ele><time>2026-04-04T08:05:29.757Z</time></trkpt><trkpt lat="46.0200603" lon="9.3534273"><ele>464.0</ele><time>2026-04-04T08:05:36.711Z</time></trkpt><trkpt lat="46.0201613" lon="9.3534149"><ele>464.0</ele><time>2026-04-04T08:05:44.696Z</time></trkpt><trkpt lat="46.0240868" lon="9.3617186"><ele>675.0</ele><time>2026-04-04T08:07:45.855Z</time></trkpt><trkpt lat="46.0060537" lon="9.3641474"><ele>675.0</ele><time>2026-04-04T08:12:29.695Z</time></trkpt><trkpt lat="46.0060531" lon="9.3642605"><ele>675.0</ele><time>2026-04-04T08:14:09.69Z</time></trkpt><trkpt lat="46.0061506" lon="9.3642741"><ele>675.0</ele><time>2026-04-04T08:14:13.715Z</time></trkpt><trkpt lat="46.0062153" lon="9.3642545"><ele>675.0</ele><time>2026-04-04T08:14:14.697Z</time></trkpt><trkpt lat="46.0063464" lon="9.3642293"><ele>675.0</ele><time>2026-04-04T08:14:16.71Z</time></trkpt><trkpt lat="46.006416" lon="9.3642351"><ele>675.0</ele><time>2026-04-04T08:14:17.697Z</time></trkpt><trkpt lat="46.0064938" lon="9.3642438"><ele>675.0</ele><time>2026-04-04T08:14:18.703Z</time></trkpt><trkpt lat="46.0065704" lon="9.3642512"><ele>675.0</ele><time>2026-04-04T08:14:19.706Z</time></trkpt><trkpt lat="46.0066751" lon="9.3642733"><ele>675.0</ele><time>2026-04-04T08:14:21.697Z</time></trkpt><trkpt lat="46.0067671" lon="9.3642781"><ele>675.0</ele><time>2026-04-04T08:14:47.699Z</time></trkpt><trkpt lat="46.0068698" lon="9.3642917"><ele>675.0</ele><time>2026-04-04T08:14:49.704Z</time></trkpt><trkpt lat="46.006988" lon="9.364286"><ele>670.2</ele><time>2026-04-04T08:14:51.703Z</time></trkpt><trkpt lat="46.007052" lon="9.3642831"><ele>665.4</ele><time>2026-04-04T08:14:52.693Z</time></trkpt><trkpt lat="46.0071158" lon="9.3643071"><ele>660.5999999999999</ele><time>2026-04-04T08:14:54.7Z</time></trkpt><trkpt lat="46.0070059" lon="9.3642982"><ele>655.8</ele><time>2026-04-04T08:15:28.703Z</time></trkpt><trkpt lat="46.0068392" lon="9.3642763"><ele>651.0</ele><time>2026-04-04T08:15:30.695Z</time></trkpt><trkpt lat="46.0067248" lon="9.3642726"><ele>651.0</ele><time>2026-04-04T08:15:32.703Z</time></trkpt><trkpt lat="46.0066868" lon="9.3643807"><ele>651.0</ele><time>2026-04-04T08:15:35.701Z</time></trkpt><trkpt lat="46.0067278" lon="9.3645078"><ele>651.0</ele><time>2026-04-04T08:15:37.699Z</time></trkpt><trkpt lat="46.0067987" lon="9.3646247"><ele>651.0</ele><time>2026-04-04T08:15:39.697Z</time></trkpt><trkpt lat="46.0068953" lon="9.3647385"><ele>651.0</ele><time>2026-04-04T08:15:41.702Z</time></trkpt><trkpt lat="46.0069645" lon="9.3648316"><ele>648.5</ele><time>2026-04-04T08:15:43.696Z</time></trkpt><trkpt lat="46.0070151" lon="9.3649041"><ele>646.0</ele><time>2026-04-04T08:15:46.691Z</time></trkpt><trkpt lat="46.0069826" lon="9.3649848"><ele>643.5</ele><time>2026-04-04T08:15:48.702Z</time></trkpt><trkpt lat="46.0069105" lon="9.3650255"><ele>641.0</ele><time>2026-04-04T08:15:50.716Z</time></trkpt><trkpt lat="46.0068214" lon="9.3650569"><ele>638.5</ele><time>2026-04-04T08:15:52.709Z</time></trkpt><trkpt lat="46.0067448" lon="9.3651156"><ele>636.0</ele><time>2026-04-04T08:16:43.694Z</time></trkpt><trkpt lat="46.0067352" lon="9.3652094"><ele>636.0</ele><time>2026-04-04T08:16:47.699Z</time></trkpt><trkpt lat="46.006797" lon="9.365237"><ele>636.0</ele><time>2026-04-04T08:16:48.708Z</time></trkpt><trkpt lat="46.0068657" lon="9.3652966"><ele>636.0</ele><time>2026-04-04T08:16:50.702Z</time></trkpt><trkpt lat="46.0069413" lon="9.3653682"><ele>636.0</ele><time>2026-04-04T08:16:53.699Z</time></trkpt><trkpt lat="46.0070098" lon="9.3654497"><ele>636.0</ele><time>2026-04-04T08:16:55.703Z</time></trkpt><trkpt lat="46.0070823" lon="9.3655871"><ele>636.0</ele><time>2026-04-04T08:16:57.705Z</time></trkpt><trkpt lat="46.0071135" lon="9.3656689"><ele>635.0</ele><time>2026-04-04T08:16:58.714Z</time></trkpt><trkpt lat="46.0071521" lon="9.3658112"><ele>634.0</ele><time>2026-04-04T08:17:00.7Z</time></trkpt><trkpt lat="46.0071899" lon="9.365928"><ele>633.0</ele><time>2026-04-04T08:17:02.7Z</time></trkpt><trkpt lat="46.0071585" lon="9.3660376"><ele>632.0</ele><time>2026-04-04T08:17:05.695Z</time></trkpt><trkpt lat="46.0071256" lon="9.3661167"><ele>631.0</ele><time>2026-04-04T08:17:06.696Z</time></trkpt><trkpt lat="46.0070822" lon="9.3661848"><ele>630.0</ele><time>2026-04-04T08:17:07.711Z</time></trkpt><trkpt lat="46.0070191" lon="9.3663262"><ele>626.8</ele><time>2026-04-04T08:17:09.709Z</time></trkpt><trkpt lat="46.0069715" lon="9.3664575"><ele>623.6</ele><time>2026-04-04T08:17:11.693Z</time></trkpt><trkpt lat="46.0069469" lon="9.3665594"><ele>620.4</ele><time>2026-04-04T08:17:13.694Z</time></trkpt><trkpt lat="46.0068922" lon="9.3666714"><ele>617.2</ele><time>2026-04-04T08:17:17.696Z</time></trkpt><trkpt lat="46.0068581" lon="9.3667517"><ele>614.0</ele><time>2026-04-04T08:17:19.695Z</time></trkpt><trkpt lat="46.0067924" lon="9.3668825"><ele>614.0</ele><time>2026-04-04T08:17:21.703Z</time></trkpt><trkpt lat="46.0067211" lon="9.366997"><ele>614.0</ele><time>2026-04-04T08:17:23.708Z</time></trkpt><trkpt lat="46.0066589" lon="9.3671321"><ele>614.0</ele><time>2026-04-04T08:17:25.699Z</time></trkpt><trkpt lat="46.0066438" lon="9.3672386"><ele>614.0</ele><time>2026-04-04T08:17:27.694Z</time></trkpt><trkpt lat="46.0066156" lon="9.3673683"><ele>614.0</ele><time>2026-04-04T08:17:29.692Z</time></trkpt><trkpt lat="46.0065673" lon="9.3674835"><ele>609.8333333333333</ele><time>2026-04-04T08:17:31.694Z</time></trkpt><trkpt lat="46.0064964" lon="9.3675899"><ele>605.6666666666666</ele><time>2026-04-04T08:17:33.697Z</time></trkpt><trkpt lat="46.0064546" lon="9.3677032"><ele>601.5</ele><time>2026-04-04T08:17:35.699Z</time></trkpt><trkpt lat="46.0064268" lon="9.3678048"><ele>597.3333333333334</ele><time>2026-04-04T08:17:37.696Z</time></trkpt><trkpt lat="46.0063532" lon="9.3678293"><ele>593.1666666666667</ele><time>2026-04-04T08:17:41.7Z</time></trkpt><trkpt lat="46.0062608" lon="9.3677597"><ele>589.0</ele><time>2026-04-04T08:17:44.696Z</time></trkpt><trkpt lat="46.0061956" lon="9.3676849"><ele>589.0</ele><time>2026-04-04T08:17:46.699Z</time></trkpt><trkpt lat="46.0061134" lon="9.3675997"><ele>589.0</ele><time>2026-04-04T08:17:48.697Z</time></trkpt><trkpt lat="46.0060002" lon="9.3675239"><ele>589.0</ele><time>2026-04-04T08:17:50.69Z</time></trkpt><trkpt lat="46.0059132" lon="9.3674367"><ele>589.0</ele><time>2026-04-04T08:17:52.702Z</time></trkpt><trkpt lat="46.0058331" lon="9.3674603"><ele>589.0</ele><time>2026-04-04T08:17:54.691Z</time></trkpt><trkpt lat="46.0057487" lon="9.3674982"><ele>592.6</ele><time>2026-04-04T08:17:56.707Z</time></trkpt><trkpt lat="46.0056633" lon="9.3675842"><ele>596.2</ele><time>2026-04-04T08:17:58.7Z</time></trkpt><trkpt lat="46.0055746" lon="9.3676498"><ele>599.8000000000001</ele><time>2026-04-04T08:18:00.702Z</time></trkpt><trkpt lat="46.0054723" lon="9.3677844"><ele>603.4</ele><time>2026-04-04T08:18:02.706Z</time></trkpt><trkpt lat="46.0054383" lon="9.3678863"><ele>607.0</ele><time>2026-04-04T08:18:03.7Z</time></trkpt><trkpt lat="46.0054187" lon="9.3679896"><ele>602.0</ele><time>2026-04-04T08:18:04.702Z</time></trkpt><trkpt lat="46.0053308" lon="9.3680965"><ele>597.0</ele><time>2026-04-04T08:18:06.703Z</time></trkpt><trkpt lat="46.0052401" lon="9.3681993"><ele>592.0</ele><time>2026-04-04T08:18:08.708Z</time></trkpt><trkpt lat="46.0051517" lon="9.3682987"><ele>587.0</ele><time>2026-04-04T08:18:10.698Z</time></trkpt><trkpt lat="46.0051141" lon="9.3683904"><ele>582.0</ele><time>2026-04-04T08:18:11.703Z</time></trkpt><trkpt lat="46.0050535" lon="9.3684968"><ele>582.0</ele><time>2026-04-04T08:18:13.692Z</time></trkpt><trkpt lat="46.0050384" lon="9.3686488"><ele>582.0</ele><time>2026-04-04T08:18:14.705Z</time></trkpt><trkpt lat="46.005021" lon="9.368757"><ele>582.0</ele><time>2026-04-04T08:18:15.698Z</time></trkpt><trkpt lat="46.0050231" lon="9.3688904"><ele>582.0</ele><time>2026-04-04T08:18:16.697Z</time></trkpt><trkpt lat="46.0050125" lon="9.3690199"><ele>582.0</ele><time>2026-04-04T08:18:17.7Z</time></trkpt><trkpt lat="46.0050121" lon="9.3691672"><ele>580.0</ele><time>2026-04-04T08:18:18.7Z</time></trkpt><trkpt lat="46.0050078" lon="9.3692599"><ele>578.0</ele><time>2026-04-04T08:18:19.7Z</time></trkpt><trkpt lat="46.0049971" lon="9.3693609"><ele>576.0</ele><time>2026-04-04T08:18:21.702Z</time></trkpt><trkpt lat="46.0049664" lon="9.3694468"><ele>574.0</ele><time>2026-04-04T08:18:25.7Z</time></trkpt><trkpt lat="46.0048463" lon="9.3695063"><ele>572.0</ele><time>2026-04-04T08:18:29.696Z</time></trkpt><trkpt lat="46.00478" lon="9.3695195"><ele>570.0</ele><time>2026-04-04T08:18:30.695Z</time></trkpt><trkpt lat="46.0046534" lon="9.3695742"><ele>570.4</ele><time>2026-04-04T08:18:32.7Z</time></trkpt><trkpt lat="46.0045859" lon="9.3696362"><ele>570.8</ele><time>2026-04-04T08:18:33.703Z</time></trkpt><trkpt lat="46.004507" lon="9.3697358"><ele>571.2</ele><time>2026-04-04T08:18:35.704Z</time></trkpt><trkpt lat="46.0044337" lon="9.3698674"><ele>571.6</ele><time>2026-04-04T08:18:37.703Z</time></trkpt><trkpt lat="46.0043882" lon="9.3700446"><ele>572.0</ele><time>2026-04-04T08:18:39.702Z</time></trkpt><trkpt lat="46.0043708" lon="9.370157"><ele>572.0</ele><time>2026-04-04T08:18:40.699Z</time></trkpt><trkpt lat="46.0043179" lon="9.3702765"><ele>572.0</ele><time>2026-04-04T08:18:42.698Z</time></trkpt><trkpt lat="46.0042325" lon="9.3703091"><ele>572.0</ele><time>2026-04-04T08:18:44.694Z</time></trkpt><trkpt lat="46.0041202" lon="9.3703507"><ele>572.0</ele><time>2026-04-04T08:18:46.697Z</time></trkpt><trkpt lat="46.0040589" lon="9.370394"><ele>572.0</ele><time>2026-04-04T08:18:48.7Z</time></trkpt><trkpt lat="46.0040002" lon="9.3705074"><ele>573.6666666666666</ele><time>2026-04-04T08:18:50.702Z</time></trkpt><trkpt lat="46.0039456" lon="9.3705712"><ele>575.3333333333333</ele><time>2026-04-04T08:18:52.701Z</time></trkpt><trkpt lat="46.003883" lon="9.3706656"><ele>577.0</ele><time>2026-04-04T08:18:54.697Z</time></trkpt><trkpt lat="46.0038432" lon="9.3707399"><ele>578.6666666666666</ele><time>2026-04-04T08:18:55.723Z</time></trkpt><trkpt lat="46.0038086" lon="9.3708222"><ele>580.3333333333334</ele><time>2026-04-04T08:18:56.706Z</time></trkpt><trkpt lat="46.0037755" lon="9.3708997"><ele>582.0</ele><time>2026-04-04T08:18:57.701Z</time></trkpt><trkpt lat="46.0037258" lon="9.3710278"><ele>582.0</ele><time>2026-04-04T08:18:59.701Z</time></trkpt><trkpt lat="46.0036316" lon="9.371079"><ele>582.0</ele><time>2026-04-04T08:19:01.7Z</time></trkpt><trkpt lat="46.0035541" lon="9.3712038"><ele>582.0</ele><time>2026-04-04T08:19:03.697Z</time></trkpt><trkpt lat="46.0034407" lon="9.3713257"><ele>582.0</ele><time>2026-04-04T08:19:05.706Z</time></trkpt><trkpt lat="46.0033506" lon="9.3714604"><ele>585.6</ele><time>2026-04-04T08:19:07.704Z</time></trkpt><trkpt lat="46.0032739" lon="9.37157"><ele>589.2</ele><time>2026-04-04T08:19:08.7Z</time></trkpt><trkpt lat="46.003227" lon="9.3716607"><ele>592.8</ele><time>2026-04-04T08:19:09.702Z</time></trkpt><trkpt lat="46.0031892" lon="9.3717744"><ele>596.4</ele><time>2026-04-04T08:19:10.701Z</time></trkpt><trkpt lat="46.0031385" lon="9.3719005"><ele>600.0</ele><time>2026-04-04T08:19:11.691Z</time></trkpt><trkpt lat="46.0030937" lon="9.3720157"><ele>600.0</ele><time>2026-04-04T08:19:12.694Z</time></trkpt><trkpt lat="46.0030214" lon="9.3721561"><ele>600.0</ele><time>2026-04-04T08:19:14.691Z</time></trkpt><trkpt lat="46.0029676" lon="9.3722282"><ele>600.0</ele><time>2026-04-04T08:19:15.695Z</time></trkpt><trkpt lat="46.0029117" lon="9.3722763"><ele>600.0</ele><time>2026-04-04T08:19:16.7Z</time></trkpt><trkpt lat="46.0028546" lon="9.3723285"><ele>600.0</ele><time>2026-04-04T08:19:17.7Z</time></trkpt><trkpt lat="46.0027661" lon="9.3724606"><ele>593.0</ele><time>2026-04-04T08:19:19.7Z</time></trkpt><trkpt lat="46.0027248" lon="9.3725321"><ele>586.0</ele><time>2026-04-04T08:19:20.71Z</time></trkpt><trkpt lat="46.0026204" lon="9.3727128"><ele>579.0</ele><time>2026-04-04T08:19:22.704Z</time></trkpt><trkpt lat="46.0025614" lon="9.3728088"><ele>572.0</ele><time>2026-04-04T08:19:23.697Z</time></trkpt><trkpt lat="46.0025511" lon="9.3729161"><ele>565.0</ele><time>2026-04-04T08:19:24.7Z</time></trkpt><trkpt lat="46.0025105" lon="9.3730679"><ele>566.2</ele><time>2026-04-04T08:19:26.703Z</time></trkpt><trkpt lat="46.0024657" lon="9.3731708"><ele>567.4</ele><time>2026-04-04T08:19:28.701Z</time></trkpt><trkpt lat="46.0024021" lon="9.3733265"><ele>568.6</ele><time>2026-04-04T08:19:30.702Z</time></trkpt><trkpt lat="46.0023297" lon="9.3734528"><ele>569.8</ele><time>2026-04-04T08:19:32.699Z</time></trkpt><trkpt lat="46.0022657" lon="9.3735488"><ele>571.0</ele><time>2026-04-04T08:19:34.704Z</time></trkpt><trkpt lat="46.0021972" lon="9.3736315"><ele>571.0</ele><time>2026-04-04T08:19:38.696Z</time></trkpt><trkpt lat="46.0021174" lon="9.3736562"><ele>571.0</ele><time>2026-04-04T08:19:40.701Z</time></trkpt><trkpt lat="46.0020345" lon="9.3737159"><ele>571.0</ele><time>2026-04-04T08:19:42.701Z</time></trkpt><trkpt lat="46.0019942" lon="9.3738352"><ele>571.0</ele><time>2026-04-04T08:19:44.698Z</time></trkpt><trkpt lat="46.0019257" lon="9.3739538"><ele>571.0</ele><time>2026-04-04T08:19:48.697Z</time></trkpt><trkpt lat="46.0018488" lon="9.3740307"><ele>567.0</ele><time>2026-04-04T08:19:50.7Z</time></trkpt><trkpt lat="46.0017839" lon="9.3741614"><ele>563.0</ele><time>2026-04-04T08:19:52.703Z</time></trkpt><trkpt lat="46.0017082" lon="9.3742479"><ele>559.0</ele><time>2026-04-04T08:19:54.694Z</time></trkpt><trkpt lat="46.0016413" lon="9.3743028"><ele>555.0</ele><time>2026-04-04T08:19:56.697Z</time></trkpt><trkpt lat="46.0015689" lon="9.3744588"><ele>551.0</ele><time>2026-04-04T08:19:58.714Z</time></trkpt><trkpt lat="46.0015043" lon="9.3745563"><ele>554.3333333333333</ele><time>2026-04-04T08:19:59.701Z</time></trkpt><trkpt lat="46.0014809" lon="9.3746713"><ele>557.6666666666666</ele><time>2026-04-04T08:20:00.705Z</time></trkpt><trkpt lat="46.0014534" lon="9.3748059"><ele>561.0</ele><time>2026-04-04T08:20:02.699Z</time></trkpt><trkpt lat="46.0014225" lon="9.3748906"><ele>564.3333333333334</ele><time>2026-04-04T08:20:04.702Z</time></trkpt><trkpt lat="46.0014124" lon="9.3750376"><ele>567.6666666666667</ele><time>2026-04-04T08:20:07.7Z</time></trkpt><trkpt lat="46.0014161" lon="9.3751361"><ele>571.0</ele><time>2026-04-04T08:20:09.705Z</time></trkpt><trkpt lat="46.0039038" lon="9.3798376"><ele>454.0</ele><time>2026-04-04T08:23:31.257Z</time></trkpt><trkpt lat="46.0019416" lon="9.3809573"><ele>473.0</ele><time>2026-04-04T08:23:50.274Z</time></trkpt><trkpt lat="46.0000552" lon="9.3818562"><ele>479.0</ele><time>2026-04-04T08:24:16.654Z</time></trkpt><trkpt lat="45.9995696" lon="9.3802467"><ele>484.0</ele><time>2026-04-04T08:24:57.417Z</time></trkpt><trkpt lat="45.9983876" lon="9.3839005"><ele>490.0</ele><time>2026-04-04T08:28:50.059Z</time></trkpt><trkpt lat="45.9980177" lon="9.3847408"><ele>497.0</ele><time>2026-04-04T08:28:56.496Z</time></trkpt><trkpt lat="45.9968914" lon="9.3868818"><ele>495.0</ele><time>2026-04-04T08:30:10.067Z</time></trkpt><trkpt lat="45.9914351" lon="9.4119669"><ele>515.0</ele><time>2026-04-04T08:36:28.015Z</time></trkpt><trkpt lat="45.9903825" lon="9.4151951"><ele>475.0</ele><time>2026-04-04T08:36:33.913Z</time></trkpt><trkpt lat="45.9958089" lon="9.3974075"><ele>495.0</ele><time>2026-04-04T08:41:08.621Z</time></trkpt><trkpt lat="45.9914329" lon="9.4119577"><ele>497.0</ele><time>2026-04-04T08:43:08.142Z</time></trkpt><trkpt lat="45.9873703" lon="9.4133679"><ele>493.0</ele><time>2026-04-04T08:43:22.436Z</time></trkpt><trkpt lat="45.9915375" lon="9.4110093"><ele>550.0</ele><time>2026-04-04T08:44:05.276Z</time></trkpt><trkpt lat="45.9868931" lon="9.400158"><ele>489.0</ele><time>2026-04-04T08:50:22.707Z</time></trkpt><trkpt lat="45.9870277" lon="9.406788"><ele>561.0</ele><time>2026-04-04T08:59:35.146Z</time></trkpt><trkpt lat="45.9837846" lon="9.4053431"><ele>561.0</ele><time>2026-04-04T09:17:59.706Z</time></trkpt><trkpt lat="45.9837132" lon="9.4053835"><ele>561.0</ele><time>2026-04-04T09:19:30.699Z</time></trkpt><trkpt lat="45.983728" lon="9.4054749"><ele>561.0</ele><time>2026-04-04T09:25:30.697Z</time></trkpt><trkpt lat="45.983735" lon="9.4055935"><ele>561.0</ele><time>2026-04-04T09:29:43.693Z</time></trkpt><trkpt lat="45.9899609" lon="9.4159064"><ele>515.0</ele><time>2026-04-04T09:39:55.817Z</time></trkpt><trkpt lat="45.9852626" lon="9.4223345"><ele>461.0</ele><time>2026-04-04T09:47:40.279Z</time></trkpt><trkpt lat="46.0001699" lon="9.3861649"><ele>1155.0</ele><time>2026-04-04T09:57:25.843Z</time></trkpt><trkpt lat="45.9660359" lon="9.4184489"><ele>658.0</ele><time>2026-04-04T10:09:01.701Z</time></trkpt><trkpt lat="45.9608635" lon="9.4425014"><ele>658.0</ele><time>2026-04-04T10:36:03.979Z</time></trkpt><trkpt lat="45.9607888" lon="9.4424707"><ele>658.0</ele><time>2026-04-04T10:36:24.165Z</time></trkpt><trkpt lat="45.9605925" lon="9.4424756"><ele>658.0</ele><time>2026-04-04T10:36:30.905Z</time></trkpt><trkpt lat="45.9592737" lon="9.4422609"><ele>575.0</ele><time>2026-04-04T10:36:48.941Z</time></trkpt><trkpt lat="45.9613616" lon="9.4504741"><ele>575.0</ele><time>2026-04-04T10:40:10.74Z</time></trkpt><trkpt lat="45.9612978" lon="9.4504957"><ele>575.0</ele><time>2026-04-04T10:40:11.728Z</time></trkpt><trkpt lat="45.9630293" lon="9.4511031"><ele>562.0</ele><time>2026-04-04T10:41:17.407Z</time></trkpt><trkpt lat="45.9638418" lon="9.4511823"><ele>579.0</ele><time>2026-04-04T10:41:23.996Z</time></trkpt><trkpt lat="45.9762881" lon="9.448451"><ele>549.0</ele><time>2026-04-04T10:43:28.43Z</time></trkpt><trkpt lat="45.9856599" lon="9.4320675"><ele>542.0</ele><time>2026-04-04T10:45:32.993Z</time></trkpt><trkpt lat="45.9870568" lon="9.4240534"><ele>527.0</ele><time>2026-04-04T10:46:26.204Z</time></trkpt><trkpt lat="45.9868551" lon="9.4225977"><ele>431.0</ele><time>2026-04-04T10:46:32.832Z</time></trkpt><trkpt lat="46.0162178" lon="9.3694272"><ele>430.0</ele><time>2026-04-04T10:52:20.577Z</time></trkpt><trkpt lat="46.0166836" lon="9.367455"><ele>418.0</ele><time>2026-04-04T10:52:27.194Z</time></trkpt><trkpt lat="46.0200927" lon="9.3608158"><ele>766.0</ele><time>2026-04-04T10:53:32.602Z</time></trkpt><trkpt lat="46.032967" lon="9.3446669"><ele>949.0</ele><time>2026-04-04T11:07:40.327Z</time></trkpt><trkpt lat="46.0322291" lon="9.3561058"><ele>978.0</ele><time>2026-04-04T11:11:11.539Z</time></trkpt><trkpt lat="46.0327091" lon="9.354892"><ele>981.0</ele><time>2026-04-04T11:11:22.339Z</time></trkpt><trkpt lat="46.0333823" lon="9.3537535"><ele>981.0</ele><time>2026-04-04T11:11:32.318Z</time></trkpt><trkpt lat="46.0332803" lon="9.3541507"><ele>981.0</ele><time>2026-04-04T11:12:10.322Z</time></trkpt><trkpt lat="46.0333579" lon="9.3538221"><ele>975.0</ele><time>2026-04-04T11:13:08.151Z</time></trkpt><trkpt lat="46.0332566" lon="9.3538467"><ele>969.0</ele><time>2026-04-04T11:30:30.792Z</time></trkpt><trkpt lat="46.0332109" lon="9.3537772"><ele>963.0</ele><time>2026-04-04T11:30:35.705Z</time></trkpt><trkpt lat="46.0331383" lon="9.3537913"><ele>957.0</ele><time>2026-04-04T11:30:39.713Z</time></trkpt><trkpt lat="46.0330581" lon="9.3537719"><ele>951.0</ele><time>2026-04-04T11:30:45.707Z</time></trkpt><trkpt lat="46.0331319" lon="9.353771"><ele>945.0</ele><time>2026-04-04T11:31:32.719Z</time></trkpt><trkpt lat="46.0332417" lon="9.3537462"><ele>945.0</ele><time>2026-04-04T11:31:41.713Z</time></trkpt><trkpt lat="46.0331691" lon="9.3537314"><ele>945.0</ele><time>2026-04-04T11:32:16.701Z</time></trkpt><trkpt lat="46.0332012" lon="9.3536276"><ele>945.0</ele><time>2026-04-04T11:33:40.711Z</time></trkpt><trkpt lat="46.0332954" lon="9.3537009"><ele>945.0</ele><time>2026-04-04T11:44:01.71Z</time></trkpt><trkpt lat="46.0332129" lon="9.3537522"><ele>945.0</ele><time>2026-04-04T11:44:04.71Z</time></trkpt></trkseg></trk></gpx>